Time;durP1;ratioP1;P1;durP2;ratioP2;P2;SDS_P1;SDS_P2;PMS_P1;PMS_P2;Temp;Humidity;BMP_temperature;BMP_pressure;BME280_temperature;BME280_humidity;BME280_pressure;Samples;Min_cycle;Max_cycle;Signal;HPM_P1;HPM_P2
2023/12/09 00:01:30;;;;;;;85.97;22.17;;;;;;;;;;5028935;28;20032;-81
2023/12/09 00:03:56;;;;;;;83.00;21.15;;;;;;;;;;5011313;28;20021;-81
2023/12/09 00:06:22;;;;;;;76.93;20.70;;;;;;;;;;5008119;28;20434;-80
2023/12/09 00:08:50;;;;;;;78.40;21.00;;;;;;;;;;5022555;28;20207;-81
2023/12/09 00:11:16;;;;;;;83.57;19.65;;;;;;;;;;5027439;28;20018;-81
2023/12/09 00:13:42;;;;;;;89.03;22.00;;;;;;;;;;5014427;28;20022;-81
2023/12/09 00:16:09;;;;;;;87.95;21.33;;;;;;;;;;5007494;28;20152;-81
2023/12/09 00:18:35;;;;;;;90.05;21.90;;;;;;;;;;5019785;28;20017;-81
2023/12/09 00:21:01;;;;;;;97.18;21.33;;;;;;;;;;5020535;28;20010;-81
2023/12/09 00:23:27;;;;;;;90.47;22.00;;;;;;;;;;5018107;28;20025;-81
2023/12/09 00:25:53;;;;;;;92.50;21.30;;;;;;;;;;5028786;28;20021;-80
2023/12/09 00:28:19;;;;;;;77.90;20.75;;;;;;;;;;5019918;28;20092;-81
2023/12/09 00:30:45;;;;;;;73.45;20.85;;;;;;;;;;5007502;28;20160;-80
2023/12/09 00:33:11;;;;;;;81.75;20.13;;;;;;;;;;5014528;28;20246;-81
2023/12/09 00:35:37;;;;;;;75.50;20.33;;;;;;;;;;5027234;28;20017;-81
2023/12/09 00:38:03;;;;;;;79.43;21.10;;;;;;;;;;5023073;28;20024;-81
2023/12/09 00:40:29;;;;;;;84.53;21.33;;;;;;;;;;5008570;28;20836;-81
2023/12/09 00:42:55;;;;;;;76.97;20.85;;;;;;;;;;5018335;28;20030;-80
2023/12/09 00:45:21;;;;;;;80.07;19.15;;;;;;;;;;5028343;28;20013;-81
2023/12/09 00:47:47;;;;;;;79.78;19.60;;;;;;;;;;5024256;28;20525;-81
2023/12/09 00:50:13;;;;;;;71.30;18.73;;;;;;;;;;5011325;28;20060;-81
2023/12/09 00:52:39;;;;;;;68.60;17.25;;;;;;;;;;5011908;28;20050;-81
2023/12/09 00:55:05;;;;;;;68.93;18.02;;;;;;;;;;5032149;28;20096;-80
2023/12/09 00:57:31;;;;;;;74.18;18.48;;;;;;;;;;5032260;28;20013;-81
2023/12/09 00:59:57;;;;;;;61.33;16.48;;;;;;;;;;5014964;28;20018;-81
2023/12/09 01:02:23;;;;;;;66.60;18.45;;;;;;;;;;5011196;28;20105;-81
2023/12/09 01:04:49;;;;;;;61.47;17.95;;;;;;;;;;5027856;28;20105;-80
2023/12/09 01:07:15;;;;;;;68.53;19.23;;;;;;;;;;5030609;28;20014;-81
2023/12/09 01:09:42;;;;;;;72.63;18.13;;;;;;;;;;5016301;28;20068;-81
2023/12/09 01:12:08;;;;;;;67.40;16.60;;;;;;;;;;5010695;28;20393;-80
2023/12/09 01:14:34;;;;;;;70.40;16.80;;;;;;;;;;5023485;28;20017;-81
2023/12/09 01:17:00;;;;;;;73.03;17.33;;;;;;;;;;5030251;28;20037;-81
2023/12/09 01:19:26;;;;;;;66.45;17.73;;;;;;;;;;5019344;28;20544;-81
2023/12/09 01:21:52;;;;;;;64.25;16.85;;;;;;;;;;5010649;28;20030;-80
2023/12/09 01:24:19;;;;;;;68.43;16.30;;;;;;;;;;5021289;28;20021;-81
2023/12/09 01:26:45;;;;;;;77.82;17.85;;;;;;;;;;5020683;28;20037;-80
2023/12/09 01:29:11;;;;;;;72.35;18.60;;;;;;;;;;5018073;28;20052;-81
2023/12/09 01:31:37;;;;;;;73.78;16.45;;;;;;;;;;5030953;28;20047;-81
2023/12/09 01:34:03;;;;;;;77.97;17.65;;;;;;;;;;5024214;28;20017;-81
2023/12/09 01:36:29;;;;;;;73.25;17.17;;;;;;;;;;5011817;28;20018;-81
2023/12/09 01:38:55;;;;;;;71.40;17.00;;;;;;;;;;5016567;28;20017;-81
2023/12/09 01:41:21;;;;;;;79.90;16.95;;;;;;;;;;5030022;28;20091;-81
2023/12/09 01:43:50;;;;;;;78.55;17.92;;;;;;;;;;5026762;28;20017;-80
2023/12/09 01:46:17;;;;;;;61.17;16.02;;;;;;;;;;5010443;28;20026;-81
2023/12/09 01:48:43;;;;;;;74.63;17.13;;;;;;;;;;5012507;28;20105;-81
2023/12/09 01:51:09;;;;;;;72.53;17.75;;;;;;;;;;5029780;28;20437;-81
2023/12/09 01:53:36;;;;;;;66.88;16.45;;;;;;;;;;5029264;28;20009;-81
2023/12/09 01:56:03;;;;;;;63.80;16.40;;;;;;;;;;5010552;28;20088;-81
2023/12/09 01:58:29;;;;;;;66.78;15.90;;;;;;;;;;5010257;28;20011;-81
2023/12/09 02:00:55;;;;;;;69.07;15.70;;;;;;;;;;5028289;28;20013;-81
2023/12/09 02:03:21;;;;;;;69.45;17.45;;;;;;;;;;5029618;28;20029;-81
2023/12/09 02:05:47;;;;;;;66.55;15.63;;;;;;;;;;5030809;28;20458;-81
2023/12/09 02:08:13;;;;;;;60.72;16.00;;;;;;;;;;5029478;28;20029;-81
2023/12/09 02:10:39;;;;;;;66.28;15.10;;;;;;;;;;5016036;28;20005;-81
2023/12/09 02:13:24;;;;;;;60.33;15.30;;;;;;;;;;5029477;28;20021;-81
2023/12/09 02:15:58;;;;;;;58.20;13.93;;;;;;;;;;5029427;28;20076;-80
2023/12/09 02:18:25;;;;;;;59.47;15.32;;;;;;;;;;5029500;28;20020;-81
2023/12/09 02:20:51;;;;;;;54.03;13.88;;;;;;;;;;5012658;28;20077;-81
2023/12/09 02:23:17;;;;;;;65.00;14.43;;;;;;;;;;5009511;28;20216;-81
2023/12/09 02:25:44;;;;;;;50.17;12.27;;;;;;;;;;5024678;28;20108;-80
2023/12/09 02:28:28;;;;;;;53.80;13.57;;;;;;;;;;5030635;28;20017;-81
2023/12/09 02:31:01;;;;;;;54.95;12.88;;;;;;;;;;5014287;28;20018;-80
2023/12/09 02:33:29;;;;;;;56.63;13.02;;;;;;;;;;5009377;28;20417;-81
2023/12/09 02:35:56;;;;;;;62.55;14.20;;;;;;;;;;5026988;28;20017;-81
2023/12/09 02:38:23;;;;;;;46.78;12.82;;;;;;;;;;5029027;28;20014;-81
2023/12/09 02:40:50;;;;;;;51.97;12.73;;;;;;;;;;5014167;28;20026;-81
2023/12/09 02:43:17;;;;;;;57.78;12.82;;;;;;;;;;5009081;28;20041;-80
2023/12/09 02:45:45;;;;;;;48.15;11.88;;;;;;;;;;5022191;28;20386;-81
2023/12/09 02:48:11;;;;;;;60.22;13.43;;;;;;;;;;5028913;28;20009;-80
2023/12/09 02:50:37;;;;;;;45.70;12.35;;;;;;;;;;5017868;28;20018;-81
2023/12/09 02:53:04;;;;;;;54.78;11.82;;;;;;;;;;5010643;28;20133;-80
2023/12/09 02:55:30;;;;;;;46.90;12.80;;;;;;;;;;5019332;28;20025;-80
2023/12/09 02:57:56;;;;;;;66.32;13.13;;;;;;;;;;5028574;28;20474;-81
2023/12/09 03:00:22;;;;;;;63.92;14.75;;;;;;;;;;5019621;28;20029;-80
2023/12/09 03:02:48;;;;;;;51.92;13.50;;;;;;;;;;5009081;28;20489;-81
2023/12/09 03:05:14;;;;;;;62.55;14.40;;;;;;;;;;5016282;28;20021;-81
2023/12/09 03:07:40;;;;;;;65.72;14.88;;;;;;;;;;5029869;28;20014;-81
2023/12/09 03:10:06;;;;;;;60.78;14.48;;;;;;;;;;5028263;28;20009;-80
2023/12/09 03:12:32;;;;;;;51.42;14.32;;;;;;;;;;5027906;28;20053;-80
2023/12/09 03:14:58;;;;;;;57.97;13.02;;;;;;;;;;5028261;28;20022;-81
2023/12/09 03:17:25;;;;;;;58.63;14.10;;;;;;;;;;5028065;28;20099;-80
2023/12/09 03:19:51;;;;;;;63.55;14.07;;;;;;;;;;5024581;28;20014;-81
2023/12/09 03:22:17;;;;;;;54.10;13.70;;;;;;;;;;5009761;28;20036;-80
2023/12/09 03:24:47;;;;;;;62.80;13.98;;;;;;;;;;5010383;28;20064;-81
2023/12/09 03:27:13;;;;;;;55.58;13.30;;;;;;;;;;5028036;28;20014;-81
2023/12/09 03:29:40;;;;;;;54.45;13.90;;;;;;;;;;5026982;28;20017;-81
2023/12/09 03:32:06;;;;;;;54.17;13.00;;;;;;;;;;5009736;28;20021;-81
2023/12/09 03:34:32;;;;;;;51.78;12.93;;;;;;;;;;5009717;28;20405;-81
2023/12/09 03:36:58;;;;;;;44.70;12.75;;;;;;;;;;5029138;28;20021;-81
2023/12/09 03:39:24;;;;;;;46.80;14.10;;;;;;;;;;5027646;28;20435;-80
2023/12/09 03:41:50;;;;;;;57.40;13.85;;;;;;;;;;5029084;28;20702;-80
2023/12/09 03:44:16;;;;;;;54.20;14.27;;;;;;;;;;5027767;28;20014;-80
2023/12/09 03:46:42;;;;;;;55.63;13.38;;;;;;;;;;5011516;28;20052;-80
2023/12/09 03:49:08;;;;;;;62.60;13.68;;;;;;;;;;5008141;28;20502;-80
2023/12/09 03:51:34;;;;;;;45.60;12.43;;;;;;;;;;5023923;28;20029;-80
2023/12/09 03:54:00;;;;;;;46.65;12.98;;;;;;;;;;5027893;28;20017;-80
2023/12/09 03:56:26;;;;;;;46.92;11.70;;;;;;;;;;5015583;28;20280;-80
2023/12/09 03:58:53;;;;;;;41.88;11.35;;;;;;;;;;5012197;28;20018;-80
2023/12/09 04:01:22;;;;;;;48.17;11.68;;;;;;;;;;5021927;28;20025;-80
2023/12/09 04:03:48;;;;;;;49.10;12.07;;;;;;;;;;5014081;28;20005;-80
2023/12/09 04:06:14;;;;;;;44.80;10.95;;;;;;;;;;5012872;28;20354;-80
2023/12/09 04:08:40;;;;;;;51.65;11.90;;;;;;;;;;5012855;28;20229;-80
2023/12/09 04:11:06;;;;;;;47.00;11.38;;;;;;;;;;5011819;28;20025;-80
2023/12/09 04:13:32;;;;;;;43.80;11.85;;;;;;;;;;5011757;28;20026;-80
2023/12/09 04:15:59;;;;;;;46.53;11.90;;;;;;;;;;5025047;28;20033;-81
2023/12/09 04:18:25;;;;;;;48.55;12.05;;;;;;;;;;5021816;28;20022;-80
2023/12/09 04:20:51;;;;;;;52.53;12.27;;;;;;;;;;5011876;28;20018;-81
2023/12/09 04:23:18;;;;;;;56.95;12.23;;;;;;;;;;5028404;28;20022;-80
2023/12/09 04:25:44;;;;;;;48.20;12.15;;;;;;;;;;5029438;28;20013;-80
2023/12/09 04:28:11;;;;;;;42.03;11.00;;;;;;;;;;5012199;28;20465;-80
2023/12/09 04:30:37;;;;;;;47.33;12.15;;;;;;;;;;5014086;28;20089;-81
2023/12/09 04:33:03;;;;;;;47.30;11.50;;;;;;;;;;5032777;28;20013;-80
2023/12/09 04:35:30;;;;;;;40.67;11.75;;;;;;;;;;5030024;28;20021;-80
2023/12/09 04:37:56;;;;;;;50.55;12.00;;;;;;;;;;5012836;28;20045;-81
2023/12/09 04:40:22;;;;;;;38.90;10.73;;;;;;;;;;5014187;28;20025;-81
2023/12/09 04:42:48;;;;;;;42.08;10.82;;;;;;;;;;5027007;28;20123;-81
2023/12/09 04:45:14;;;;;;;44.75;10.70;;;;;;;;;;5012990;28;20398;-80
2023/12/09 04:47:40;;;;;;;40.05;10.95;;;;;;;;;;5016824;28;20556;-80
2023/12/09 04:50:10;;;;;;;41.60;10.82;;;;;;;;;;5020570;28;20029;-80
2023/12/09 04:52:36;;;;;;;38.50;10.73;;;;;;;;;;5015547;28;20022;-80
2023/12/09 04:55:03;;;;;;;56.13;12.40;;;;;;;;;;5012538;28;20022;-80
2023/12/09 04:57:29;;;;;;;35.25;9.95;;;;;;;;;;5025537;28;20018;-81
2023/12/09 04:59:55;;;;;;;43.63;10.05;;;;;;;;;;5030952;28;20074;-80
2023/12/09 05:02:21;;;;;;;44.30;11.65;;;;;;;;;;5018371;28;20030;-81
2023/12/09 05:04:48;;;;;;;45.92;10.23;;;;;;;;;;5011078;28;20373;-80
2023/12/09 05:07:14;;;;;;;41.38;10.38;;;;;;;;;;5022056;28;20538;-80
2023/12/09 05:09:40;;;;;;;45.83;9.70;;;;;;;;;;5030582;28;20021;-80
2023/12/09 05:12:06;;;;;;;38.35;9.85;;;;;;;;;;5021376;28;20014;-80
2023/12/09 05:14:32;;;;;;;52.35;10.45;;;;;;;;;;5012261;28;20100;-80
2023/12/09 05:16:58;;;;;;;42.50;9.98;;;;;;;;;;5020661;28;20046;-80
2023/12/09 05:19:24;;;;;;;41.80;10.60;;;;;;;;;;5031946;28;20020;-80
2023/12/09 05:21:50;;;;;;;43.88;9.88;;;;;;;;;;5024274;28;20441;-80
2023/12/09 05:24:17;;;;;;;43.63;10.73;;;;;;;;;;5010849;28;20010;-80
2023/12/09 05:26:43;;;;;;;36.38;10.70;;;;;;;;;;5014918;28;20025;-80
2023/12/09 05:29:09;;;;;;;47.67;11.82;;;;;;;;;;5030376;28;20013;-80
2023/12/09 05:31:35;;;;;;;44.00;11.65;;;;;;;;;;5027171;28;20018;-81
2023/12/09 05:34:01;;;;;;;43.05;11.35;;;;;;;;;;5011817;28;20018;-80
2023/12/09 05:36:28;;;;;;;42.13;11.75;;;;;;;;;;5012257;28;20040;-80
2023/12/09 05:38:54;;;;;;;42.95;11.00;;;;;;;;;;5030281;28;20014;-80
2023/12/09 05:41:20;;;;;;;43.72;11.15;;;;;;;;;;5029992;28;20553;-80
2023/12/09 05:43:46;;;;;;;46.58;10.77;;;;;;;;;;5030264;28;20020;-80
2023/12/09 05:46:21;;;;;;;49.47;12.27;;;;;;;;;;5031401;28;20551;-80
2023/12/09 05:48:47;;;;;;;43.00;12.23;;;;;;;;;;5029974;28;20021;-80
2023/12/09 05:51:14;;;;;;;39.83;10.20;;;;;;;;;;5029206;28;20020;-80
2023/12/09 05:53:41;;;;;;;50.88;11.15;;;;;;;;;;5030064;28;20029;-80
2023/12/09 05:56:11;;;;;;;49.40;11.95;;;;;;;;;;5030050;28;20024;-80
2023/12/09 05:58:38;;;;;;;48.47;12.57;;;;;;;;;;5012872;28;20076;-80
2023/12/09 06:01:05;;;;;;;43.83;11.88;;;;;;;;;;5010128;28;20466;-80
2023/12/09 06:03:31;;;;;;;44.92;11.43;;;;;;;;;;5025630;28;20029;-80
2023/12/09 06:05:58;;;;;;;47.00;12.48;;;;;;;;;;5029922;28;20022;-80
2023/12/09 06:08:24;;;;;;;40.33;10.75;;;;;;;;;;5015598;28;20072;-80
2023/12/09 06:10:50;;;;;;;44.42;11.80;;;;;;;;;;5011208;28;20018;-80
2023/12/09 06:13:16;;;;;;;43.25;11.75;;;;;;;;;;5022749;28;20047;-80
2023/12/09 06:15:42;;;;;;;42.22;11.10;;;;;;;;;;5029497;28;20481;-80
2023/12/09 06:18:08;;;;;;;37.25;11.23;;;;;;;;;;5018315;28;20030;-81
2023/12/09 06:20:34;;;;;;;37.13;11.98;;;;;;;;;;5011133;28;20068;-79
2023/12/09 06:23:00;;;;;;;44.33;11.05;;;;;;;;;;5020787;28;20040;-78
2023/12/09 06:25:26;;;;;;;40.20;11.55;;;;;;;;;;5025088;28;20018;-79
2023/12/09 06:27:53;;;;;;;44.85;12.20;;;;;;;;;;5017422;28;20020;-79
2023/12/09 06:30:19;;;;;;;44.03;12.00;;;;;;;;;;5017684;28;20070;-79
2023/12/09 06:32:45;;;;;;;37.05;11.70;;;;;;;;;;5005018;28;20497;-79
2023/12/09 06:35:11;;;;;;;43.80;12.30;;;;;;;;;;5028059;28;20025;-79
2023/12/09 06:37:37;;;;;;;42.85;12.43;;;;;;;;;;5023463;28;20021;-80
2023/12/09 06:40:03;;;;;;;49.53;12.32;;;;;;;;;;5029314;28;20025;-79
2023/12/09 06:42:30;;;;;;;50.50;13.15;;;;;;;;;;5013725;28;20022;-79
2023/12/09 06:44:56;;;;;;;46.65;12.90;;;;;;;;;;5010065;28;20089;-79
2023/12/09 06:47:23;;;;;;;46.45;13.23;;;;;;;;;;5033369;28;20021;-79
2023/12/09 06:49:50;;;;;;;38.83;10.70;;;;;;;;;;5006601;28;20077;-79
2023/12/09 06:52:16;;;;;;;46.50;12.80;;;;;;;;;;5033326;28;20021;-80
2023/12/09 06:54:42;;;;;;;52.42;13.52;;;;;;;;;;5028838;28;20029;-79
2023/12/09 06:57:08;;;;;;;56.83;11.35;;;;;;;;;;5022783;28;20026;-80
2023/12/09 06:59:34;;;;;;;45.20;12.45;;;;;;;;;;5023804;28;20462;-79
2023/12/09 07:02:00;;;;;;;52.15;13.18;;;;;;;;;;5010986;28;20080;-79
2023/12/09 07:04:26;;;;;;;55.30;14.25;;;;;;;;;;5009948;28;20050;-80
2023/12/09 07:06:52;;;;;;;47.55;13.93;;;;;;;;;;5028647;28;20053;-79
2023/12/09 07:09:18;;;;;;;55.60;15.60;;;;;;;;;;5017120;28;20536;-79
2023/12/09 07:11:44;;;;;;;53.45;14.45;;;;;;;;;;5008959;28;20104;-83
2023/12/09 07:14:10;;;;;;;56.60;15.07;;;;;;;;;;5021606;28;20071;-80
2023/12/09 07:16:39;;;;;;;58.10;14.10;;;;;;;;;;5024368;28;20073;-79
2023/12/09 07:19:06;;;;;;;57.83;15.68;;;;;;;;;;5020154;28;20028;-80
2023/12/09 07:21:32;;;;;;;52.00;15.15;;;;;;;;;;5028523;28;20024;-80
2023/12/09 07:23:58;;;;;;;54.00;13.93;;;;;;;;;;5018279;28;20102;-79
2023/12/09 07:26:24;;;;;;;52.65;14.15;;;;;;;;;;5008679;28;20109;-80
2023/12/09 07:28:50;;;;;;;52.55;15.05;;;;;;;;;;5008742;28;20014;-80
2023/12/09 07:31:16;;;;;;;49.80;13.93;;;;;;;;;;5008203;28;20062;-79
2023/12/09 07:33:42;;;;;;;53.60;14.00;;;;;;;;;;5014644;28;20029;-80
2023/12/09 07:36:08;;;;;;;52.80;13.90;;;;;;;;;;5028395;28;20087;-82
2023/12/09 07:38:34;;;;;;;62.08;14.13;;;;;;;;;;5029557;28;20494;-81
2023/12/09 07:41:01;;;;;;;52.42;14.55;;;;;;;;;;5022841;28;20018;-83
2023/12/09 07:43:27;;;;;;;61.67;14.82;;;;;;;;;;5011850;28;20407;-82
2023/12/09 07:45:53;;;;;;;47.58;13.23;;;;;;;;;;5028110;28;20017;-82
2023/12/09 07:48:19;;;;;;;49.97;12.18;;;;;;;;;;5028024;28;20070;-81
2023/12/09 07:50:45;;;;;;;50.42;12.52;;;;;;;;;;5027705;28;20048;-81
2023/12/09 07:53:11;;;;;;;40.50;12.15;;;;;;;;;;5010737;28;20483;-84
2023/12/09 07:55:37;;;;;;;57.40;14.52;;;;;;;;;;5011148;28;20138;-83
2023/12/09 07:58:03;;;;;;;44.97;13.75;;;;;;;;;;5009890;28;20577;-81
2023/12/09 08:00:29;;;;;;;58.88;12.27;;;;;;;;;;5019566;28;20025;-82
2023/12/09 08:02:55;;;;;;;56.90;13.35;;;;;;;;;;5014099;28;20496;-83
2023/12/09 08:05:26;;;;;;;52.60;13.30;;;;;;;;;;5011969;28;20017;-82
2023/12/09 08:07:52;;;;;;;;;;;;;;;;;;5013215;28;20109;-82
2023/12/09 08:10:18;;;;;;;48.67;13.20;;;;;;;;;;5009068;28;20008;-82
2023/12/09 08:12:44;;;;;;;53.72;14.48;;;;;;;;;;5013370;28;20273;-82
2023/12/09 08:15:10;;;;;;;52.58;14.02;;;;;;;;;;5006027;28;20048;-82
2023/12/09 08:17:36;;;;;;;44.85;14.45;;;;;;;;;;5005344;28;20042;-82
2023/12/09 08:20:06;;;;;;;53.70;13.57;;;;;;;;;;5009546;28;20390;-82
2023/12/09 08:22:32;;;;;;;42.97;13.70;;;;;;;;;;5006614;28;20032;-82
2023/12/09 08:24:58;;;;;;;44.70;12.15;;;;;;;;;;5012618;28;20022;-82
2023/12/09 08:27:25;;;;;;;31.05;12.02;;;;;;;;;;5005628;28;20067;-81
2023/12/09 08:29:51;;;;;;;42.10;12.45;;;;;;;;;;5009088;28;20021;-82
2023/12/09 08:32:17;;;;;;;47.53;11.65;;;;;;;;;;5017756;28;20025;-82
2023/12/09 08:34:43;;;;;;;48.13;12.88;;;;;;;;;;5006191;28;20019;-82
2023/12/09 08:37:09;;;;;;;47.85;13.63;;;;;;;;;;5021140;28;20014;-82
2023/12/09 08:39:37;;;;;;;39.30;12.65;;;;;;;;;;5005553;28;20014;-82
2023/12/09 08:42:03;;;;;;;61.50;14.20;;;;;;;;;;5009173;28;20030;-82
2023/12/09 08:44:29;;;;;;;51.10;13.80;;;;;;;;;;5008908;28;20655;-82
2023/12/09 08:46:55;;;;;;;45.92;13.05;;;;;;;;;;5025183;28;20557;-82
2023/12/09 08:49:21;;;;;;;34.53;9.50;;;;;;;;;;5006419;28;20094;-81
2023/12/09 08:51:48;;;;;;;41.47;11.90;;;;;;;;;;5004324;28;20014;-82
2023/12/09 08:54:15;;;;;;;36.20;11.30;;;;;;;;;;5009355;28;20022;-82
2023/12/09 08:56:41;;;;;;;36.95;11.98;;;;;;;;;;5010214;28;20433;-82
2023/12/09 08:59:09;;;;;;;46.88;10.55;;;;;;;;;;5010300;28;20025;-82
2023/12/09 09:01:35;;;;;;;32.15;11.35;;;;;;;;;;5007922;28;20068;-81
2023/12/09 09:04:02;;;;;;;39.42;11.05;;;;;;;;;;5013486;28;20096;-82
2023/12/09 09:06:28;;;;;;;38.63;10.57;;;;;;;;;;5022860;28;20018;-82
2023/12/09 09:08:54;;;;;;;40.45;11.30;;;;;;;;;;5027050;28;20017;-82
2023/12/09 09:11:20;;;;;;;28.50;10.85;;;;;;;;;;5019439;28;20014;-83
2023/12/09 09:13:46;;;;;;;40.40;10.75;;;;;;;;;;5000253;28;20037;-82
2023/12/09 09:16:12;;;;;;;38.05;11.25;;;;;;;;;;5015394;28;20056;-82
2023/12/09 09:18:38;;;;;;;33.75;9.48;;;;;;;;;;5024233;28;20056;-82
2023/12/09 09:21:04;;;;;;;38.50;10.18;;;;;;;;;;5028733;28;20021;-82
2023/12/09 09:23:30;;;;;;;30.90;9.15;;;;;;;;;;5028908;28;20080;-82
2023/12/09 09:25:56;;;;;;;37.67;11.75;;;;;;;;;;5019196;28;20018;-83
2023/12/09 09:28:22;;;;;;;32.42;10.35;;;;;;;;;;5011149;28;20042;-82
2023/12/09 09:30:48;;;;;;;32.75;9.13;;;;;;;;;;5017747;28;20068;-82
2023/12/09 09:33:14;;;;;;;36.28;9.48;;;;;;;;;;5029549;28;20029;-82
2023/12/09 09:35:40;;;;;;;30.10;8.95;;;;;;;;;;5024308;28;20022;-82
2023/12/09 09:38:06;;;;;;;31.20;9.95;;;;;;;;;;5009716;28;20366;-82
2023/12/09 09:40:32;;;;;;;33.47;10.07;;;;;;;;;;5012968;28;20045;-82
2023/12/09 09:43:06;;;;;;;30.10;9.65;;;;;;;;;;5029222;28;20025;-82
2023/12/09 09:45:32;;;;;;;28.42;8.48;;;;;;;;;;5025695;28;20105;-82
2023/12/09 09:48:02;;;;;;;34.08;9.75;;;;;;;;;;5009366;28;20014;-83
2023/12/09 09:50:28;;;;;;;29.20;9.35;;;;;;;;;;5010969;28;20010;-82
2023/12/09 09:52:54;;;;;;;32.30;9.40;;;;;;;;;;5030385;28;20025;-82
2023/12/09 09:55:21;;;;;;;19.90;6.80;;;;;;;;;;5028541;28;20018;-82
2023/12/09 09:57:51;;;;;;;31.40;8.32;;;;;;;;;;5009408;28;20316;-82
2023/12/09 10:00:19;;;;;;;32.42;8.20;;;;;;;;;;5009009;28;20433;-82
2023/12/09 10:02:50;;;;;;;28.98;7.82;;;;;;;;;;5028697;28;20034;-81
2023/12/09 10:05:17;;;;;;;31.25;7.85;;;;;;;;;;5029700;28;20017;-82
2023/12/09 10:07:44;;;;;;;26.80;8.02;;;;;;;;;;5009794;28;20018;-82
2023/12/09 10:10:10;;;;;;;25.85;7.57;;;;;;;;;;5008666;28;20080;-82
2023/12/09 10:12:36;;;;;;;27.13;7.57;;;;;;;;;;5026014;28;20045;-82
2023/12/09 10:15:03;;;;;;;27.10;7.72;;;;;;;;;;5028332;28;20535;-82
2023/12/09 10:17:30;;;;;;;22.77;7.00;;;;;;;;;;5012466;28;20686;-82
2023/12/09 10:19:56;;;;;;;25.02;7.38;;;;;;;;;;5008594;28;20018;-82
2023/12/09 10:22:22;;;;;;;26.77;8.00;;;;;;;;;;5021148;28;20056;-82
2023/12/09 10:24:52;;;;;;;25.27;7.03;;;;;;;;;;5028139;28;20018;-82
2023/12/09 10:27:27;;;;;;;24.45;7.97;;;;;;;;;;5028263;28;20068;-82
2023/12/09 10:29:53;;;;;;;34.50;7.72;;;;;;;;;;5026180;28;20022;-82
2023/12/09 10:32:23;;;;;;;23.58;6.82;;;;;;;;;;5013439;28;20025;-82
2023/12/09 10:34:49;;;;;;;24.75;7.40;;;;;;;;;;5030170;28;20057;-81
2023/12/09 10:37:16;;;;;;;22.88;7.07;;;;;;;;;;5011610;28;20060;-82
2023/12/09 10:39:43;;;;;;;30.83;6.60;;;;;;;;;;5014126;28;20018;-83
2023/12/09 10:42:09;;;;;;;26.00;6.65;;;;;;;;;;5010949;28;20109;-82
2023/12/09 10:44:35;;;;;;;22.48;6.22;;;;;;;;;;5011702;28;20104;-81
2023/12/09 10:47:03;;;;;;;21.40;5.55;;;;;;;;;;5014111;28;20049;-82
2023/12/09 10:49:30;;;;;;;22.73;7.05;;;;;;;;;;5011820;28;20390;-82
2023/12/09 10:51:56;;;;;;;21.98;7.00;;;;;;;;;;5011742;28;20113;-82
2023/12/09 10:54:22;;;;;;;18.45;5.35;;;;;;;;;;5011294;28;20529;-82
2023/12/09 10:56:49;;;;;;;16.55;5.25;;;;;;;;;;5017070;28;20013;-83
2023/12/09 10:59:17;;;;;;;25.45;5.60;;;;;;;;;;5025617;28;20116;-82
2023/12/09 11:01:44;;;;;;;23.08;5.82;;;;;;;;;;5009283;28;20025;-82
2023/12/09 11:04:12;;;;;;;22.35;5.68;;;;;;;;;;5007541;28;20252;-82
2023/12/09 11:06:39;;;;;;;21.05;5.38;;;;;;;;;;5008896;28;20100;-82
2023/12/09 11:09:06;;;;;;;18.15;5.30;;;;;;;;;;5013368;28;20036;-82
2023/12/09 11:11:32;;;;;;;12.38;4.75;;;;;;;;;;5011030;28;20072;-82
2023/12/09 11:13:58;;;;;;;18.02;5.43;;;;;;;;;;5007979;28;20117;-82
2023/12/09 11:16:28;;;;;;;19.55;5.00;;;;;;;;;;5010946;28;20041;-82
2023/12/09 11:18:55;;;;;;;17.58;5.28;;;;;;;;;;5004404;28;20022;-83
2023/12/09 11:21:22;;;;;;;18.08;5.03;;;;;;;;;;5010837;28;20072;-83
2023/12/09 11:23:49;;;;;;;22.17;4.80;;;;;;;;;;5020066;28;20021;-82
2023/12/09 11:26:16;;;;;;;18.48;4.85;;;;;;;;;;5018480;28;20045;-80
2023/12/09 11:29:01;;;;;;;13.50;4.65;;;;;;;;;;5013323;28;20563;-81
2023/12/09 11:31:38;;;;;;;18.42;3.85;;;;;;;;;;5007848;28;20018;-80
2023/12/09 11:34:08;;;;;;;17.65;5.03;;;;;;;;;;5026308;28;20421;-80
2023/12/09 11:36:38;;;;;;;16.33;4.38;;;;;;;;;;5028332;28;20009;-80
2023/12/09 11:39:06;;;;;;;13.07;4.07;;;;;;;;;;5017444;28;20060;-81
2023/12/09 11:41:32;;;;;;;13.45;4.38;;;;;;;;;;5014414;28;20045;-80
2023/12/09 11:44:00;;;;;;;18.23;4.43;;;;;;;;;;5026721;28;20037;-81
2023/12/09 11:46:26;;;;;;;13.95;3.53;;;;;;;;;;5024956;28;20033;-79
2023/12/09 11:48:53;;;;;;;16.77;4.70;;;;;;;;;;5027064;28;20097;-76
2023/12/09 11:51:19;;;;;;;12.77;4.20;;;;;;;;;;5028131;28;20141;-75
2023/12/09 11:54:11;;;;;;;17.05;4.57;;;;;;;;;;5026483;28;20067;-76
2023/12/09 11:56:38;;;;;;;13.45;3.90;;;;;;;;;;5024343;28;20481;-76
2023/12/09 11:59:05;;;;;;;14.85;3.97;;;;;;;;;;5027903;28;20025;-76
2023/12/09 12:01:35;;;;;;;12.77;4.00;;;;;;;;;;5026400;28;20333;-76
2023/12/09 12:04:01;;;;;;;18.23;3.72;;;;;;;;;;5011149;28;20030;-76
2023/12/09 12:06:28;;;;;;;13.95;4.30;;;;;;;;;;5006578;28;20029;-76
2023/12/09 12:08:54;;;;;;;17.40;4.47;;;;;;;;;;5022717;28;20053;-76
2023/12/09 12:11:24;;;;;;;17.17;3.58;;;;;;;;;;5026272;28;20014;-76
2023/12/09 12:13:50;;;;;;;15.02;4.03;;;;;;;;;;5014095;28;20018;-76
2023/12/09 12:16:16;;;;;;;14.95;3.35;;;;;;;;;;5007552;28;20069;-76
2023/12/09 12:18:43;;;;;;;15.18;3.58;;;;;;;;;;5017407;28;20025;-76
2023/12/09 12:21:09;;;;;;;18.70;4.00;;;;;;;;;;5026173;28;20466;-76
2023/12/09 12:23:36;;;;;;;14.05;3.92;;;;;;;;;;5019071;28;20110;-76
2023/12/09 12:26:02;;;;;;;11.48;3.30;;;;;;;;;;5007565;28;20097;-76
2023/12/09 12:28:28;;;;;;;16.80;3.60;;;;;;;;;;5011314;28;20504;-76
2023/12/09 12:31:01;;;;;;;13.10;4.40;;;;;;;;;;5026007;28;20800;-76
2023/12/09 12:33:30;;;;;;;11.65;3.15;;;;;;;;;;5010851;28;20064;-76
2023/12/09 12:35:57;;;;;;;13.80;2.88;;;;;;;;;;5012589;28;20105;-77
2023/12/09 12:38:23;;;;;;;12.52;3.10;;;;;;;;;;5006813;28;20021;-76
2023/12/09 12:40:53;;;;;;;16.75;4.20;;;;;;;;;;5009742;28;20010;-76
2023/12/09 12:43:19;;;;;;;13.95;3.17;;;;;;;;;;5010532;28;20384;-76
2023/12/09 12:45:46;;;;;;;12.07;2.80;;;;;;;;;;5013123;28;20021;-76
2023/12/09 12:48:12;;;;;;;10.63;2.95;;;;;;;;;;5013210;28;20041;-76
2023/12/09 12:50:38;;;;;;;9.93;3.20;;;;;;;;;;5013489;28;20014;-80
2023/12/09 12:53:04;;;;;;;11.10;3.13;;;;;;;;;;5014158;28;20120;-76
2023/12/09 12:55:31;;;;;;;16.00;4.50;;;;;;;;;;5015688;28;20017;-76
2023/12/09 12:57:57;;;;;;;13.02;3.38;;;;;;;;;;5013200;28;20500;-76
2023/12/09 13:00:23;;;;;;;14.18;3.63;;;;;;;;;;5010554;28;20034;-76
2023/12/09 13:02:49;;;;;;;13.90;3.65;;;;;;;;;;5008813;28;20044;-76
2023/12/09 13:05:15;;;;;;;11.18;3.20;;;;;;;;;;5014230;28;20048;-76
2023/12/09 13:07:43;;;;;;;12.48;3.20;;;;;;;;;;5013655;28;20022;-76
2023/12/09 13:10:09;;;;;;;9.15;2.75;;;;;;;;;;5010352;28;20029;-76
2023/12/09 13:12:35;;;;;;;10.38;3.08;;;;;;;;;;5013928;28;20056;-76
2023/12/09 13:15:03;;;;;;;13.73;3.38;;;;;;;;;;5020440;28;20021;-76
2023/12/09 13:17:29;;;;;;;13.00;3.10;;;;;;;;;;5019283;28;20068;-77
2023/12/09 13:19:55;;;;;;;12.10;3.20;;;;;;;;;;5017495;28;20030;-76
2023/12/09 13:22:21;;;;;;;17.13;3.03;;;;;;;;;;5009373;28;20014;-77
2023/12/09 13:24:47;;;;;;;13.48;3.20;;;;;;;;;;5027746;28;20047;-77
2023/12/09 13:27:14;;;;;;;12.68;3.80;;;;;;;;;;5028137;28;20263;-77
2023/12/09 13:29:40;;;;;;;9.32;2.90;;;;;;;;;;5029849;28;20028;-76
2023/12/09 13:32:06;;;;;;;10.77;3.17;;;;;;;;;;5009686;28;20014;-77
2023/12/09 13:34:32;;;;;;;16.20;3.03;;;;;;;;;;5008881;28;20041;-76
2023/12/09 13:36:58;;;;;;;12.10;2.92;;;;;;;;;;5011104;28;20014;-76
2023/12/09 13:39:25;;;;;;;14.35;3.00;;;;;;;;;;5012458;28;20026;-77
2023/12/09 13:41:52;;;;;;;11.60;3.47;;;;;;;;;;5016529;28;20018;-76
2023/12/09 13:44:18;;;;;;;9.00;2.63;;;;;;;;;;5016209;28;20072;-76
2023/12/09 13:46:44;;;;;;;14.13;2.50;;;;;;;;;;5018702;28;20014;-77
2023/12/09 13:49:10;;;;;;;10.48;2.40;;;;;;;;;;4999836;28;20050;-76
2023/12/09 13:51:38;;;;;;;7.35;2.40;;;;;;;;;;5013244;28;20009;-77
2023/12/09 13:54:04;;;;;;;13.10;2.67;;;;;;;;;;5019696;28;20022;-76
2023/12/09 13:56:30;;;;;;;8.10;2.20;;;;;;;;;;5009978;28;20026;-76
2023/12/09 13:58:56;;;;;;;8.77;2.20;;;;;;;;;;5006700;28;20067;-76
2023/12/09 14:01:22;;;;;;;7.95;2.00;;;;;;;;;;5001145;28;20061;-76
2023/12/09 14:03:48;;;;;;;8.30;2.22;;;;;;;;;;5011623;28;20072;-76
2023/12/09 14:06:14;;;;;;;8.30;1.80;;;;;;;;;;5018418;28;20389;-76
2023/12/09 14:08:41;;;;;;;9.90;2.70;;;;;;;;;;5011946;28;20046;-76
2023/12/09 14:11:08;;;;;;;8.90;2.35;;;;;;;;;;5010042;28;20006;-76
2023/12/09 14:13:35;;;;;;;7.97;2.58;;;;;;;;;;5018946;28;20519;-76
2023/12/09 14:16:01;;;;;;;7.72;2.47;;;;;;;;;;5017905;28;20498;-77
2023/12/09 14:18:27;;;;;;;8.63;2.33;;;;;;;;;;5010236;28;20032;-76
2023/12/09 14:20:53;;;;;;;9.05;2.88;;;;;;;;;;5014880;28;20025;-76